Portada
METAR-TAF:

METAR-TAF

Aeroports :

Najran, Aràbia Saudita

latitud: 17-37N, longitud: 044-25E, altitud: 1212 m

Observació

L'informe es va fer fa 22 minuts, a les 20:00 UTC
Vent 8 kt del Oest
Temperatura 26°C
Humitat 32%
Pressió 1016 hPa
Visibilitat 10 km o més
sense núvols per sota de 1500 mi sense presència de cumulonimbus.

METAR: OENG 242000Z 27008KT CAVOK 26/08 Q1016 NOSIG

Hora: 23:22 (20:22 UTC)

Pronòstic

L'informe es va fer fa 9 hores i 22 minuts, a les 11:00 UTC
Pronòstic vàlid del 24 a les 12 UTC al 25 a les 18 UTC
Vent 14 kt del Sud/Sud-Oest
Visibilitat: 7000 m
Escasses núvols a una alçada de 3000 ft
Evolucionant progressivament
l' 24 a les 12 UTC al 24 a les 14 UTC
Vent 18 kt del Oest
Temporalment
l' 24 a les 12 UTC al 24 a les 18 UTC
Escasses núvols a una alçada de 3000 ft, Cumulonimbus.
tempesta

TAF: OENG 241100Z 2412/2518 20014KT 7000 FEW030 BECMG 2412/2414 26018KT TEMPO 2412/2418 TS FEW030CB

Observacions i pronòstics meteorològics de més de 4000 aeroports (METAR i TAF).

Les estacions disponibles són els punts grocs i vermells al mapa.

Posi el ratolí al punt desitjat per veure el nom de l'estació.

Feu clic per veure les observacions i els pronòstics meteorològics.

Per canviar el mapa: feu clic els botons verds amb una creu de color negre per apropar; al botó verd amb un guió per allunyar la imatge; o en les fletxes verdes per a mapes adjacents.


METAR-TAF: